Time;durP1;ratioP1;P1;durP2;ratioP2;P2;SDS_P1;SDS_P2;PMS_P1;PMS_P2;Temp;Humidity;BMP_temperature;BMP_pressure;BME280_temperature;BME280_humidity;BME280_pressure;Samples;Min_cycle;Max_cycle;Signal;HPM_P1;HPM_P2
2021/06/06 00:02:05;;;;;;;3.75;3.03;;;;;;;-140.79;100.00;63287.88;4969060;28;20039;-72
2021/06/06 00:04:31;;;;;;;4.38;3.08;;;;;;;-140.79;100.00;63287.88;4951898;28;20061;-71
2021/06/06 00:06:56;;;;;;;3.78;3.10;;;;;;;-140.79;100.00;63287.88;4969415;28;20507;-71
2021/06/06 00:09:22;;;;;;;5.03;3.30;;;;;;;-140.79;100.00;63287.88;4968892;28;20027;-71
2021/06/06 00:11:49;;;;;;;4.13;3.63;;;;;;;-140.79;100.00;63287.88;4969119;28;20015;-71
2021/06/06 00:14:19;;;;;;;4.20;3.10;;;;;;;-140.79;100.00;63287.88;4969207;28;20033;-72
2021/06/06 00:16:48;;;;;;;3.88;2.85;;;;;;;-140.79;100.00;63287.88;4951722;28;20030;-72
2021/06/06 00:19:14;;;;;;;3.65;2.60;;;;;;;-140.79;100.00;63287.88;4952251;28;20189;-71
2021/06/06 00:21:40;;;;;;;3.97;3.10;;;;;;;-140.79;100.00;63287.88;4952045;28;20042;-71
2021/06/06 00:24:07;;;;;;;4.15;3.10;;;;;;;-140.79;100.00;63287.88;4966947;28;20031;-72
2021/06/06 00:26:33;;;;;;;4.70;2.97;;;;;;;-140.79;100.00;63287.88;4968443;28;20034;-72
2021/06/06 00:28:58;;;;;;;4.53;3.33;;;;;;;-140.79;100.00;63287.88;4969022;28;20426;-72
2021/06/06 00:31:24;;;;;;;3.72;2.60;;;;;;;-140.79;100.00;63287.88;4951391;28;20290;-71
2021/06/06 00:33:49;;;;;;;4.50;2.83;;;;;;;-140.79;100.00;63287.88;4968392;28;20034;-72
2021/06/06 00:36:15;;;;;;;3.90;3.40;;;;;;;-140.79;100.00;63287.88;4967409;28;20039;-72
2021/06/06 00:38:41;;;;;;;4.57;3.05;;;;;;;-140.79;100.00;63287.88;4968242;28;20030;-72
2021/06/06 00:41:06;;;;;;;3.53;2.80;;;;;;;-140.79;100.00;63287.88;4968748;28;20035;-72
2021/06/06 00:43:32;;;;;;;3.30;2.63;;;;;;;-140.79;100.00;63287.88;4968596;28;20030;-71
2021/06/06 00:45:58;;;;;;;4.65;3.30;;;;;;;-140.79;100.00;63287.88;4967196;28;20030;-71
2021/06/06 00:48:23;;;;;;;3.50;2.88;;;;;;;-140.79;100.00;63287.88;4951359;28;20035;-72
2021/06/06 00:50:50;;;;;;;3.58;3.05;;;;;;;-140.79;100.00;63287.88;4968655;28;20049;-71
2021/06/06 00:53:43;;;;;;;3.55;2.97;;;;;;;-140.79;100.00;63287.88;4966775;28;20030;-72
2021/06/06 00:56:10;;;;;;;3.83;3.33;;;;;;;-140.79;100.00;63287.88;4966946;28;20497;-72
2021/06/06 00:58:36;;;;;;;3.35;2.50;;;;;;;-140.79;100.00;63287.88;4967697;28;20227;-72
2021/06/06 01:01:02;;;;;;;3.42;3.13;;;;;;;-140.79;100.00;63287.88;4968186;28;20047;-72
2021/06/06 01:03:28;;;;;;;3.88;3.00;;;;;;;-140.79;100.00;63287.88;4951207;28;20481;-72
2021/06/06 01:06:11;;;;;;;4.50;2.90;;;;;;;-140.79;100.00;63287.88;4950764;28;20023;-71
2021/06/06 01:08:37;;;;;;;4.47;3.20;;;;;;;-140.79;100.00;63287.88;4968724;28;20418;-71
2021/06/06 01:11:24;;;;;;;5.30;2.97;;;;;;;-140.79;100.00;63287.88;4951016;28;20109;-71
2021/06/06 01:13:55;;;;;;;3.50;2.60;;;;;;;-140.79;100.00;63287.88;4953410;28;20078;-71
2021/06/06 01:16:25;;;;;;;4.15;3.03;;;;;;;-140.79;100.00;63287.88;4951059;28;20129;-72
2021/06/06 01:18:51;;;;;;;3.83;2.88;;;;;;;-140.79;100.00;63287.88;4935596;28;20062;-72
2021/06/06 01:21:32;;;;;;;4.20;2.80;;;;;;;-140.79;100.00;63287.88;4967461;28;20027;-71
2021/06/06 01:24:26;;;;;;;5.28;3.15;;;;;;;-140.79;100.00;63287.88;4968266;28;20924;-71
2021/06/06 01:27:11;;;;;;;4.03;3.10;;;;;;;-140.79;100.00;63287.88;4967740;28;20428;-72
2021/06/06 01:29:40;;;;;;;3.95;3.00;;;;;;;-140.79;100.00;63287.88;4951419;28;20033;-70
2021/06/06 01:32:23;;;;;;;4.28;2.85;;;;;;;-140.79;100.00;63287.88;4967619;28;20026;-72
2021/06/06 01:34:53;;;;;;;4.63;2.75;;;;;;;-140.79;100.00;63287.88;4951934;28;20034;-72
2021/06/06 01:37:20;;;;;;;3.60;2.90;;;;;;;-140.79;100.00;63287.88;4950614;28;20523;-72
2021/06/06 01:39:54;;;;;;;4.32;2.97;;;;;;;-140.79;100.00;63287.88;4967417;28;20038;-72
2021/06/06 01:42:31;;;;;;;4.88;2.95;;;;;;;-140.79;100.00;63287.88;4949971;28;20113;-72
2021/06/06 01:45:00;;;;;;;3.78;2.90;;;;;;;-140.79;100.00;63287.88;4950771;28;20042;-71
2021/06/06 01:47:27;;;;;;;4.55;2.90;;;;;;;-140.79;100.00;63287.88;4967046;28;20030;-70
2021/06/06 01:49:57;;;;;;;4.25;2.97;;;;;;;-140.79;100.00;63287.88;4969310;28;20089;-72
2021/06/06 01:52:24;;;;;;;2.92;2.63;;;;;;;-140.79;100.00;63287.88;4954764;28;20038;-71
2021/06/06 01:54:49;;;;;;;3.58;3.00;;;;;;;-140.79;100.00;63287.88;4970766;28;20418;-72
2021/06/06 01:57:18;;;;;;;3.22;2.53;;;;;;;-140.79;100.00;63287.88;4954648;28;20037;-71
2021/06/06 01:59:46;;;;;;;3.40;2.97;;;;;;;-140.79;100.00;63287.88;4953875;28;20038;-71
2021/06/06 02:02:12;;;;;;;3.95;2.97;;;;;;;-140.79;100.00;63287.88;4954564;28;20497;-71
2021/06/06 02:04:38;;;;;;;4.03;3.03;;;;;;;-140.79;100.00;63287.88;4970476;28;20054;-71
2021/06/06 02:07:06;;;;;;;4.93;3.40;;;;;;;-140.79;100.00;63287.88;4970241;28;20433;-72
2021/06/06 02:09:33;;;;;;;4.15;2.95;;;;;;;-140.79;100.00;63287.88;4970367;28;20046;-72
2021/06/06 02:12:00;;;;;;;3.97;2.60;;;;;;;-140.79;100.00;63287.88;4985571;28;20026;-71
2021/06/06 02:14:31;;;;;;;4.00;3.10;;;;;;;-140.79;100.00;63287.88;4953966;28;20090;-71
2021/06/06 02:16:59;;;;;;;4.75;3.30;;;;;;;-140.79;100.00;63287.88;4954131;28;20035;-72
2021/06/06 02:19:26;;;;;;;3.58;2.92;;;;;;;-140.79;100.00;63287.88;4953200;28;20026;-72
2021/06/06 02:21:56;;;;;;;3.55;3.00;;;;;;;-140.79;100.00;63287.88;4971423;28;20477;-72
2021/06/06 02:24:22;;;;;;;3.88;2.95;;;;;;;-140.79;100.00;63287.88;4969531;28;20089;-70
2021/06/06 02:27:17;;;;;;;3.38;2.80;;;;;;;-140.79;100.00;63287.88;4953854;28;20066;-71
2021/06/06 02:30:05;;;;;;;3.80;3.03;;;;;;;-140.79;100.00;63287.88;4917353;28;20048;-71
2021/06/06 02:32:45;;;;;;;4.30;3.13;;;;;;;-140.79;100.00;63287.88;4951788;28;20417;-71
2021/06/06 02:35:16;;;;;;;4.78;2.80;;;;;;;-140.79;100.00;63287.88;4952995;28;20038;-72
2021/06/06 02:37:50;;;;;;;3.95;2.90;;;;;;;-140.79;100.00;63287.88;4953225;28;20101;-71
2021/06/06 02:40:27;;;;;;;5.00;2.85;;;;;;;-140.79;100.00;63287.88;4953098;28;20498;-72
2021/06/06 02:42:54;;;;;;;3.42;2.78;;;;;;;-140.79;100.00;63287.88;4953353;28;20035;-71
2021/06/06 02:45:29;;;;;;;5.03;3.05;;;;;;;-140.79;100.00;63287.88;4953322;28;20027;-72
2021/06/06 02:47:59;;;;;;;5.80;2.90;;;;;;;-140.79;100.00;63287.88;4937383;28;20049;-71
2021/06/06 02:50:27;;;;;;;5.30;3.20;;;;;;;-140.79;100.00;63287.88;4938079;28;20034;-71
2021/06/06 02:53:00;;;;;;;4.45;3.53;;;;;;;-140.79;100.00;63287.88;4953534;28;20093;-71
2021/06/06 02:55:34;;;;;;;4.22;3.00;;;;;;;-140.79;100.00;63287.88;4937733;28;20065;-72
2021/06/06 02:58:31;;;;;;;3.13;2.78;;;;;;;-140.79;100.00;63287.88;4937659;28;20512;-71
2021/06/06 03:01:11;;;;;;;3.95;3.05;;;;;;;-140.79;100.00;63287.88;4969347;28;20474;-71
2021/06/06 03:03:36;;;;;;;3.72;3.00;;;;;;;-140.79;100.00;63287.88;4953817;28;20049;-71
2021/06/06 03:06:04;;;;;;;4.10;2.70;;;;;;;-140.79;100.00;63287.88;4952831;28;20031;-71
2021/06/06 03:08:30;;;;;;;4.95;2.70;;;;;;;-140.79;100.00;63287.88;4937402;28;20033;-70
2021/06/06 03:10:55;;;;;;;3.63;2.72;;;;;;;-140.79;100.00;63287.88;4968859;28;20015;-70
2021/06/06 03:13:24;;;;;;;4.70;3.28;;;;;;;-140.79;100.00;63287.88;4952662;28;20462;-71
2021/06/06 03:15:52;;;;;;;3.50;3.10;;;;;;;-140.79;100.00;63287.88;4937046;28;20146;-71
2021/06/06 03:18:17;;;;;;;5.40;3.05;;;;;;;-140.79;100.00;63287.88;4953214;28;20052;-71
2021/06/06 03:20:45;;;;;;;3.20;2.55;;;;;;;-140.79;100.00;63287.88;4952724;28;20018;-70
2021/06/06 03:23:11;;;;;;;4.53;2.95;;;;;;;-140.79;100.00;63287.88;4969816;28;20034;-71
2021/06/06 03:25:47;;;;;;;3.63;2.85;;;;;;;-140.79;100.00;63287.88;4952828;28;20031;-71
2021/06/06 03:28:13;;;;;;;3.60;2.85;;;;;;;-140.79;100.00;63287.88;4952156;28;20047;-72
2021/06/06 03:30:41;;;;;;;3.40;3.03;;;;;;;-140.79;100.00;63287.88;4969765;28;20031;-71
2021/06/06 03:33:15;;;;;;;3.85;2.70;;;;;;;-140.79;100.00;63287.88;4969189;28;20082;-71
2021/06/06 03:35:40;;;;;;;3.60;3.00;;;;;;;-140.79;100.00;63287.88;4951992;28;20157;-71
2021/06/06 03:38:06;;;;;;;4.07;2.80;;;;;;;-140.79;100.00;63287.88;4969076;28;20177;-72
2021/06/06 03:40:40;;;;;;;3.03;2.60;;;;;;;-140.79;100.00;63287.88;4969813;28;20073;-71
2021/06/06 03:43:06;;;;;;;3.65;3.00;;;;;;;-140.79;100.00;63287.88;4959875;28;20039;-72
2021/06/06 03:45:32;;;;;;;3.47;3.00;;;;;;;-140.79;100.00;63287.88;4952245;28;20077;-71
2021/06/06 03:47:58;;;;;;;3.38;2.70;;;;;;;-140.79;100.00;63287.88;4936837;28;20037;-71
2021/06/06 03:50:24;;;;;;;3.30;2.67;;;;;;;-140.79;100.00;63287.88;4968474;28;20019;-72
2021/06/06 03:52:50;;;;;;;3.30;2.85;;;;;;;-140.79;100.00;63287.88;4969061;28;20035;-72
2021/06/06 03:55:16;;;;;;;3.30;2.72;;;;;;;-140.79;100.00;63287.88;4968787;28;20031;-72
2021/06/06 03:57:41;;;;;;;3.30;3.00;;;;;;;-140.79;100.00;63287.88;4951873;28;20038;-72
2021/06/06 04:00:14;;;;;;;2.90;2.60;;;;;;;-140.79;100.00;63287.88;4968151;28;20118;-73
2021/06/06 04:02:40;;;;;;;4.03;2.97;;;;;;;-140.79;100.00;63287.88;4969117;28;20073;-72
2021/06/06 04:05:06;;;;;;;3.85;2.83;;;;;;;-140.79;100.00;63287.88;4968883;28;20073;-72
2021/06/06 04:07:32;;;;;;;4.00;2.72;;;;;;;-140.79;100.00;63287.88;4969821;28;20495;-72
2021/06/06 04:09:57;;;;;;;3.83;3.00;;;;;;;-140.79;100.00;63287.88;4969965;28;20034;-72
2021/06/06 04:12:23;;;;;;;3.80;3.05;;;;;;;-140.79;100.00;63287.88;4969016;28;20037;-72
2021/06/06 04:14:48;;;;;;;5.82;3.50;;;;;;;-140.79;100.00;63287.88;4969353;28;20483;-72
2021/06/06 04:17:14;;;;;;;3.30;2.47;;;;;;;-140.79;100.00;63287.88;4951798;28;20031;-72
2021/06/06 04:19:39;;;;;;;4.22;3.10;;;;;;;-140.79;100.00;63287.88;4968671;28;20039;-72
2021/06/06 04:22:04;;;;;;;4.30;2.85;;;;;;;-140.79;100.00;63287.88;4968488;28;20509;-72
2021/06/06 04:24:30;;;;;;;3.67;2.90;;;;;;;-140.79;100.00;63287.88;4968355;28;20039;-72
2021/06/06 04:26:55;;;;;;;3.13;2.65;;;;;;;-140.79;100.00;63287.88;4951686;28;20030;-72
2021/06/06 04:29:21;;;;;;;3.53;2.63;;;;;;;-140.79;100.00;63287.88;4967985;28;20033;-72
2021/06/06 04:31:46;;;;;;;5.53;2.70;;;;;;;-140.79;100.00;63287.88;4968620;28;20034;-72
2021/06/06 04:34:12;;;;;;;3.30;2.83;;;;;;;-140.79;100.00;63287.88;4951417;28;20033;-72
2021/06/06 04:36:38;;;;;;;5.35;3.75;;;;;;;-140.79;100.00;63287.88;4951420;28;20026;-71
2021/06/06 04:39:04;;;;;;;6.45;4.30;;;;;;;-140.79;100.00;63287.88;4965538;28;20042;-71
2021/06/06 04:41:29;;;;;;;4.50;3.97;;;;;;;-140.79;100.00;63287.88;4967325;28;20113;-70
2021/06/06 04:43:55;;;;;;;7.88;4.70;;;;;;;-140.79;100.00;63287.88;4950954;28;20030;-70
2021/06/06 04:46:20;;;;;;;6.40;4.72;;;;;;;-140.79;100.00;63287.88;4966794;28;20108;-71
2021/06/06 04:48:46;;;;;;;8.10;4.43;;;;;;;-140.79;100.00;63287.88;4967964;28;20027;-71
2021/06/06 04:51:17;;;;;;;7.28;4.72;;;;;;;-140.79;100.00;63287.88;4967208;28;20035;-70
2021/06/06 04:53:43;;;;;;;8.32;4.82;;;;;;;-140.79;100.00;63287.88;4950148;28;20045;-71
2021/06/06 04:56:09;;;;;;;9.45;4.85;;;;;;;-140.79;100.00;63287.88;4967303;28;20030;-72
2021/06/06 04:58:35;;;;;;;7.95;5.25;;;;;;;-140.79;100.00;63287.88;4934557;28;20031;-71
2021/06/06 05:01:00;;;;;;;6.38;4.85;;;;;;;-140.79;100.00;63287.88;4966205;28;20030;-72
2021/06/06 05:03:26;;;;;;;11.15;5.72;;;;;;;-140.79;100.00;63287.88;4967631;28;20513;-72
2021/06/06 05:05:51;;;;;;;10.05;5.43;;;;;;;-140.79;100.00;63287.88;4949810;28;20541;-72
2021/06/06 05:08:18;;;;;;;14.82;5.72;;;;;;;-140.79;100.00;63287.88;4968786;28;20030;-73
2021/06/06 05:10:44;;;;;;;9.65;4.97;;;;;;;-140.79;100.00;63287.88;4951238;28;20058;-73
2021/06/06 05:13:10;;;;;;;8.65;5.47;;;;;;;-140.79;100.00;63287.88;4967921;28;20144;-74
2021/06/06 05:15:35;;;;;;;10.20;6.22;;;;;;;-140.79;100.00;63287.88;4949555;28;20039;-72
2021/06/06 05:18:01;;;;;;;10.00;5.57;;;;;;;-140.79;100.00;63287.88;4967640;28;20029;-71
2021/06/06 05:20:28;;;;;;;9.63;5.60;;;;;;;-140.79;100.00;63287.88;4967188;28;20486;-70
2021/06/06 05:22:54;;;;;;;7.43;4.65;;;;;;;-140.79;100.00;63287.88;4967533;28;20122;-69
2021/06/06 05:25:19;;;;;;;5.80;4.60;;;;;;;-140.79;100.00;63287.88;4966385;28;20414;-71
2021/06/06 05:27:45;;;;;;;8.35;4.70;;;;;;;-140.79;100.00;63287.88;4966996;28;20423;-73
2021/06/06 05:30:13;;;;;;;7.18;4.20;;;;;;;-140.79;100.00;63287.88;4949225;28;20027;-72
2021/06/06 05:32:38;;;;;;;7.30;3.97;;;;;;;-140.79;100.00;63287.88;4963732;28;20195;-69
2021/06/06 05:35:04;;;;;;;6.63;3.97;;;;;;;-140.79;100.00;63287.88;4948247;28;20065;-70
2021/06/06 05:37:30;;;;;;;8.07;3.92;;;;;;;-140.79;100.00;63287.88;4941332;28;20027;-72
2021/06/06 05:39:55;;;;;;;7.80;3.90;;;;;;;-140.79;100.00;63287.88;4930212;28;20030;-71
2021/06/06 05:42:21;;;;;;;7.93;4.13;;;;;;;-140.79;100.00;63287.88;4944030;28;20560;-71
2021/06/06 05:44:46;;;;;;;6.78;4.00;;;;;;;-140.79;100.00;63287.88;4950055;28;20054;-71
2021/06/06 05:47:12;;;;;;;5.18;3.60;;;;;;;-140.79;100.00;63287.88;4980961;28;20035;-70
2021/06/06 05:49:37;;;;;;;7.15;4.25;;;;;;;-140.79;100.00;63287.88;4966605;28;20026;-70
2021/06/06 05:52:03;;;;;;;6.38;3.70;;;;;;;-140.79;100.00;63287.88;4965098;28;21044;-72
2021/06/06 05:54:29;;;;;;;5.78;3.50;;;;;;;-140.79;100.00;63287.88;4965634;28;20406;-71
2021/06/06 05:56:54;;;;;;;5.78;3.50;;;;;;;-140.79;100.00;63287.88;4965809;28;20030;-71
2021/06/06 05:59:20;;;;;;;4.60;3.10;;;;;;;-140.79;100.00;63287.88;4964747;28;20120;-73
2021/06/06 06:01:45;;;;;;;5.38;3.40;;;;;;;-140.79;100.00;63287.88;4964936;28;20031;-75
2021/06/06 06:04:11;;;;;;;4.60;3.08;;;;;;;-140.79;100.00;63287.88;4932779;28;20047;-73
2021/06/06 06:06:36;;;;;;;6.88;3.45;;;;;;;-140.79;100.00;63287.88;4964354;28;20030;-73
2021/06/06 06:09:02;;;;;;;4.50;3.55;;;;;;;-140.79;100.00;63287.88;4965949;28;20023;-71
2021/06/06 06:11:28;;;;;;;5.68;3.67;;;;;;;-140.79;100.00;63287.88;4965667;28;20049;-73
2021/06/06 06:13:53;;;;;;;6.35;3.47;;;;;;;-140.79;100.00;63287.88;4966202;28;20035;-75
2021/06/06 06:16:20;;;;;;;5.28;3.42;;;;;;;-140.79;100.00;63287.88;4965305;28;20102;-70
2021/06/06 06:18:48;;;;;;;5.20;3.63;;;;;;;-140.79;100.00;63287.88;4965433;28;20958;-72
2021/06/06 06:21:14;;;;;;;7.72;3.58;;;;;;;-140.79;100.00;63287.88;4946772;28;20599;-71
2021/06/06 06:23:39;;;;;;;4.88;3.42;;;;;;;-140.79;100.00;63287.88;4947783;28;20515;-71
2021/06/06 06:26:05;;;;;;;5.22;3.45;;;;;;;-140.79;100.00;63287.88;4960915;28;20023;-71
2021/06/06 06:28:31;;;;;;;5.45;3.30;;;;;;;-140.79;100.00;63287.88;4961620;28;20040;-71
2021/06/06 06:30:56;;;;;;;4.57;2.90;;;;;;;-140.79;100.00;63287.88;4947481;28;20026;-70
2021/06/06 06:33:22;;;;;;;5.00;3.60;;;;;;;-140.79;100.00;63287.88;4961118;28;20470;-73
2021/06/06 06:35:47;;;;;;;4.28;3.28;;;;;;;-140.79;100.00;63287.88;4964167;28;20494;-73
2021/06/06 06:38:13;;;;;;;5.00;3.30;;;;;;;-140.79;100.00;63287.88;4966233;28;20038;-73
2021/06/06 06:40:38;;;;;;;4.90;3.00;;;;;;;-140.79;100.00;63287.88;4968131;28;20046;-73
2021/06/06 06:43:04;;;;;;;4.95;3.05;;;;;;;-140.79;100.00;63287.88;4969450;28;20034;-76
2021/06/06 06:45:33;;;;;;;4.65;3.05;;;;;;;-140.79;100.00;63287.88;4966701;28;20138;-73
2021/06/06 06:48:07;;;;;;;7.95;3.85;;;;;;;-140.79;100.00;63287.88;4966989;28;20034;-72
2021/06/06 06:50:32;;;;;;;7.15;4.13;;;;;;;-140.79;100.00;63287.88;4964227;28;20046;-76
2021/06/06 06:52:58;;;;;;;4.47;3.28;;;;;;;-140.79;100.00;63287.88;4946732;28;20482;-76
2021/06/06 06:55:23;;;;;;;4.80;3.80;;;;;;;-140.79;100.00;63287.88;4948828;28;20030;-78
2021/06/06 06:57:49;;;;;;;7.82;3.30;;;;;;;-140.79;100.00;63287.88;4968693;28;20031;-71
2021/06/06 07:00:18;;;;;;;8.90;3.85;;;;;;;-140.79;100.00;63287.88;4963810;28;20125;-72
2021/06/06 07:02:43;;;;;;;6.45;4.03;;;;;;;-140.79;100.00;63287.88;4965690;28;20821;-72
2021/06/06 07:05:09;;;;;;;5.15;4.10;;;;;;;-140.79;100.00;63287.88;4949219;28;20047;-73
2021/06/06 07:07:34;;;;;;;5.25;3.90;;;;;;;-140.79;100.00;63287.88;4962288;28;20061;-73
2021/06/06 07:10:00;;;;;;;6.55;4.07;;;;;;;-140.79;100.00;63287.88;4947686;28;20072;-72
2021/06/06 07:12:26;;;;;;;6.65;4.00;;;;;;;-140.79;100.00;63287.88;4949492;28;20023;-73
2021/06/06 07:14:51;;;;;;;16.65;4.35;;;;;;;-140.79;100.00;63287.88;4948524;28;20031;-74
2021/06/06 07:17:17;;;;;;;6.82;4.35;;;;;;;-140.79;100.00;63287.88;4966315;28;20031;-73
2021/06/06 07:19:42;;;;;;;5.45;4.70;;;;;;;-140.79;100.00;63287.88;4968854;28;20073;-75
2021/06/06 07:22:08;;;;;;;9.00;4.80;;;;;;;-140.79;100.00;63287.88;4967345;28;20478;-74
2021/06/06 07:24:33;;;;;;;7.10;4.75;;;;;;;-140.79;100.00;63287.88;4950180;28;20046;-73
2021/06/06 07:26:59;;;;;;;7.20;4.35;;;;;;;-140.79;100.00;63287.88;4969084;28;20038;-72
2021/06/06 07:29:26;;;;;;;6.45;4.75;;;;;;;-140.79;100.00;63287.88;4953100;28;20034;-73
2021/06/06 07:31:55;;;;;;;6.38;4.43;;;;;;;-140.79;100.00;63287.88;4938496;28;20088;-74
2021/06/06 07:34:20;;;;;;;6.65;4.32;;;;;;;-140.79;100.00;63287.88;4972061;28;20030;-74
2021/06/06 07:36:46;;;;;;;6.53;4.35;;;;;;;-140.79;100.00;63287.88;4969431;28;20031;-72
2021/06/06 07:39:12;;;;;;;6.95;4.60;;;;;;;-140.79;100.00;63287.88;4970708;28;20039;-75
2021/06/06 07:41:37;;;;;;;7.18;3.92;;;;;;;-140.79;100.00;63287.88;4970046;28;20061;-75
2021/06/06 07:44:03;;;;;;;5.45;4.25;;;;;;;-140.79;100.00;63287.88;4953610;28;20034;-69
2021/06/06 07:46:28;;;;;;;7.13;4.00;;;;;;;-140.79;100.00;63287.88;4968541;28;20053;-77
2021/06/06 07:48:54;;;;;;;6.15;4.25;;;;;;;-140.79;100.00;63287.88;4952835;28;20039;-75
2021/06/06 07:51:22;;;;;;;7.43;4.22;;;;;;;-140.79;100.00;63287.88;4967852;28;20497;-73
2021/06/06 07:53:48;;;;;;;5.95;4.65;;;;;;;-140.79;100.00;63287.88;4934400;28;20059;-79
2021/06/06 07:56:13;;;;;;;5.72;3.97;;;;;;;-140.79;100.00;63287.88;4950537;28;20039;-76
2021/06/06 07:58:39;;;;;;;6.53;4.40;;;;;;;-140.79;100.00;63287.88;4952451;28;20027;-76
2021/06/06 08:01:05;;;;;;;6.95;4.38;;;;;;;-140.79;100.00;63287.88;4958418;28;20050;-76
2021/06/06 08:03:31;;;;;;;4.70;4.10;;;;;;;-140.79;100.00;63287.88;4969896;28;20061;-76
2021/06/06 08:05:57;;;;;;;6.75;4.07;;;;;;;-140.79;100.00;63287.88;4952112;28;20039;-76
2021/06/06 08:08:23;;;;;;;5.25;3.95;;;;;;;-140.79;100.00;63287.88;4951849;28;20047;-74
2021/06/06 08:10:50;;;;;;;5.57;4.00;;;;;;;-140.79;100.00;63287.88;4968067;28;20077;-76
2021/06/06 08:13:16;;;;;;;5.03;3.92;;;;;;;-140.79;100.00;63287.88;4951955;28;20039;-78
2021/06/06 08:15:42;;;;;;;7.20;4.25;;;;;;;-140.79;100.00;63287.88;4968650;28;20101;-79
2021/06/06 08:18:09;;;;;;;5.57;3.95;;;;;;;-140.79;100.00;63287.88;4966692;28;20062;-78
2021/06/06 08:20:48;;;;;;;5.68;3.78;;;;;;;-140.79;100.00;63287.88;4967569;28;20093;-77
2021/06/06 08:23:13;;;;;;;6.65;4.32;;;;;;;-140.79;100.00;63287.88;4950889;28;20490;-78
2021/06/06 08:25:39;;;;;;;5.35;3.85;;;;;;;-140.79;100.00;63287.88;4950383;28;20030;-78
2021/06/06 08:28:05;;;;;;;6.57;3.75;;;;;;;-140.79;100.00;63287.88;4951182;28;20441;-78
2021/06/06 08:30:34;;;;;;;7.03;4.13;;;;;;;-140.79;100.00;63287.88;4951293;28;20030;-78
2021/06/06 08:32:59;;;;;;;4.88;3.60;;;;;;;-140.79;100.00;63287.88;4952428;28;20022;-78
2021/06/06 08:35:25;;;;;;;7.28;4.30;;;;;;;-140.79;100.00;63287.88;4953013;28;20038;-78
2021/06/06 08:37:50;;;;;;;5.25;3.85;;;;;;;-140.79;100.00;63287.88;4970332;28;20037;-78
2021/06/06 08:40:47;;;;;;;5.78;3.78;;;;;;;-140.79;100.00;63287.88;4967911;28;20031;-78
2021/06/06 08:43:12;;;;;;;5.40;3.83;;;;;;;-140.79;100.00;63287.88;4953915;28;20027;-78
2021/06/06 08:45:50;;;;;;;4.93;4.10;;;;;;;-140.79;100.00;63287.88;4951909;28;20573;-78
2021/06/06 08:48:17;;;;;;;5.93;3.85;;;;;;;-140.79;100.00;63287.88;4954110;28;20047;-79
2021/06/06 08:50:49;;;;;;;5.35;3.95;;;;;;;-140.79;100.00;63287.88;4953750;28;20034;-79
2021/06/06 08:53:40;;;;;;;6.72;4.25;;;;;;;-140.79;100.00;63287.88;4956630;28;20031;-79
2021/06/06 08:56:18;;;;;;;5.38;4.53;;;;;;;-140.79;100.00;63287.88;4973537;28;20033;-79
2021/06/06 08:59:09;;;;;;;5.70;4.38;;;;;;;-140.79;100.00;63287.88;4949678;28;20038;-80
2021/06/06 09:01:56;;;;;;;5.13;4.30;;;;;;;-140.79;100.00;63287.88;4942639;28;20034;-79
2021/06/06 09:04:32;;;;;;;4.28;3.78;;;;;;;-140.79;100.00;63287.88;4955241;28;20061;-80
2021/06/06 09:06:59;;;;;;;6.40;4.30;;;;;;;-140.79;100.00;63287.88;4937284;28;20030;-78
2021/06/06 09:09:29;;;;;;;5.55;4.32;;;;;;;-140.79;100.00;63287.88;4955504;28;20030;-80
2021/06/06 09:12:05;;;;;;;6.45;4.13;;;;;;;-140.79;100.00;63287.88;4954050;28;20050;-80
2021/06/06 09:14:31;;;;;;;5.70;4.75;;;;;;;-140.79;100.00;63287.88;4973562;28;20038;-79
2021/06/06 09:17:12;;;;;;;5.45;3.95;;;;;;;-140.79;100.00;63287.88;4972095;28;20431;-79
2021/06/06 09:19:48;;;;;;;4.57;4.00;;;;;;;-140.79;100.00;63287.88;4972611;28;20494;-79
2021/06/06 09:22:15;;;;;;;4.72;4.20;;;;;;;-140.79;100.00;63287.88;4971764;28;20030;-80
2021/06/06 09:24:46;;;;;;;7.03;4.22;;;;;;;-140.79;100.00;63287.88;4973102;28;20026;-80
2021/06/06 09:27:17;;;;;;;6.50;4.40;;;;;;;-140.79;100.00;63287.88;4956065;28;20029;-80
2021/06/06 09:29:42;;;;;;;5.38;4.50;;;;;;;-140.79;100.00;63287.88;4953169;28;20031;-78
2021/06/06 09:32:10;;;;;;;17.35;5.20;;;;;;;-140.79;100.00;63287.88;4969961;28;20034;-81
2021/06/06 09:34:36;;;;;;;20.58;5.50;;;;;;;-140.79;100.00;63287.88;4969059;28;20030;-80
2021/06/06 09:37:12;;;;;;;10.02;4.75;;;;;;;-140.79;100.00;63287.88;4951448;28;20046;-80
2021/06/06 09:39:46;;;;;;;9.15;5.03;;;;;;;-140.79;100.00;63287.88;4952562;28;20081;-81
2021/06/06 09:42:46;;;;;;;14.43;4.88;;;;;;;-140.79;100.00;63287.88;4952855;28;20070;-81
2021/06/06 09:45:41;;;;;;;8.55;4.88;;;;;;;-140.79;100.00;63287.88;4946391;28;20058;-83
2021/06/06 09:48:16;;;;;;;9.18;4.60;;;;;;;-140.79;100.00;63287.88;4950079;28;20046;-84
2021/06/06 09:50:49;;;;;;;8.40;4.57;;;;;;;-140.79;100.00;63287.88;4953095;28;20030;-81
2021/06/06 09:53:23;;;;;;;8.93;5.55;;;;;;;-140.79;100.00;63287.88;4952224;28;20081;-84
2021/06/06 09:55:49;;;;;;;8.85;5.30;;;;;;;-140.79;100.00;63287.88;4976663;28;20027;-79
2021/06/06 09:58:25;;;;;;;9.07;5.00;;;;;;;-140.79;100.00;63287.88;4977836;28;20066;-80
2021/06/06 10:00:52;;;;;;;9.73;5.88;;;;;;;-140.79;100.00;63287.88;4970429;28;20125;-82
2021/06/06 10:03:46;;;;;;;8.38;6.30;;;;;;;-140.79;100.00;63287.88;4953873;28;20047;-81
2021/06/06 10:06:41;;;;;;;9.63;6.07;;;;;;;-140.79;100.00;63287.88;4921133;28;20122;-81
2021/06/06 10:09:06;;;;;;;10.02;6.25;;;;;;;-140.79;100.00;63287.88;4969101;28;20034;-82
2021/06/06 10:11:48;;;;;;;8.50;5.80;;;;;;;-140.79;100.00;63287.88;4974925;28;20030;-81
2021/06/06 10:14:13;;;;;;;6.68;5.30;;;;;;;-140.79;100.00;63287.88;4974711;28;20034;-82
2021/06/06 10:16:41;;;;;;;9.23;5.00;;;;;;;-140.79;100.00;63287.88;4961742;28;20038;-82
2021/06/06 10:19:26;;;;;;;8.45;5.90;;;;;;;-140.79;100.00;63287.88;4960762;28;20034;-81
2021/06/06 10:21:53;;;;;;;6.45;5.60;;;;;;;-140.79;100.00;63287.88;4958595;28;20053;-83
2021/06/06 10:24:41;;;;;;;6.50;5.63;;;;;;;-140.79;100.00;63287.88;4970922;28;20487;-78
2021/06/06 10:27:28;;;;;;;8.73;5.78;;;;;;;-140.79;100.00;63287.88;4968902;28;20196;-76
2021/06/06 10:30:05;;;;;;;8.48;5.50;;;;;;;-140.79;100.00;63287.88;4955632;28;20050;-76
2021/06/06 10:32:33;;;;;;;7.93;5.13;;;;;;;-140.79;100.00;63287.88;4967596;28;20029;-76
2021/06/06 10:35:11;;;;;;;7.47;5.57;;;;;;;-140.79;100.00;63287.88;4952408;28;20047;-72
2021/06/06 10:37:37;;;;;;;8.27;5.55;;;;;;;-140.79;100.00;63287.88;4954638;28;20029;-78
2021/06/06 10:40:09;;;;;;;7.10;5.03;;;;;;;-140.79;100.00;63287.88;4971369;28;20015;-85
2021/06/06 10:42:42;;;;;;;6.15;5.28;;;;;;;-140.79;100.00;63287.88;4951483;28;20019;-76
2021/06/06 10:45:37;;;;;;;8.25;5.07;;;;;;;-140.79;100.00;63287.88;4968944;28;20502;-73
2021/06/06 10:48:14;;;;;;;6.45;5.50;;;;;;;-140.79;100.00;63287.88;4900839;28;20927;-73
2021/06/06 10:50:40;;;;;;;6.18;4.93;;;;;;;-140.79;100.00;63287.88;4952835;28;20042;-74
2021/06/06 10:53:20;;;;;;;7.03;5.03;;;;;;;-140.79;100.00;63287.88;4969835;28;20045;-75
2021/06/06 10:56:04;;;;;;;6.50;5.30;;;;;;;-140.79;100.00;63287.88;4967336;28;20030;-75
2021/06/06 10:58:43;;;;;;;6.00;4.82;;;;;;;-140.79;100.00;63287.88;4969221;28;20525;-75
2021/06/06 11:01:17;;;;;;;7.20;4.90;;;;;;;-140.79;100.00;63287.88;4953317;28;20058;-75
2021/06/06 11:03:44;;;;;;;6.00;5.40;;;;;;;-140.79;100.00;63287.88;4969619;28;20518;-76
2021/06/06 11:06:47;;;;;;;6.07;5.47;;;;;;;-140.79;100.00;63287.88;4936824;28;20058;-75
2021/06/06 11:09:27;;;;;;;6.90;5.18;;;;;;;-140.79;100.00;63287.88;4891212;29;20047;-75
2021/06/06 11:12:02;;;;;;;5.88;5.00;;;;;;;-140.79;100.00;63287.88;4944239;28;20043;-78
2021/06/06 11:14:48;;;;;;;5.93;5.32;;;;;;;-140.79;100.00;63287.88;4953381;28;20019;-75
2021/06/06 11:17:39;;;;;;;6.22;5.30;;;;;;;-140.79;100.00;63287.88;4953415;28;20039;-76
2021/06/06 11:20:14;;;;;;;5.60;5.00;;;;;;;-140.79;100.00;63287.88;4954585;28;20031;-81
2021/06/06 11:22:47;;;;;;;6.82;5.22;;;;;;;-140.79;100.00;63287.88;4953651;28;20045;-81